Hearne, Texas
Current Conditions -  °F | °C
As of 10:55 PM on Monday 22 Dec 2014 (Local Time) from KLHB Reporting Station
Clear Clear  
Wind Chill: 56°   Ceiling: Unl
Heat Index: 56°   Visibility: 10mi
Dew Point: 45°   Wind: 3mph
Humidity: 66%   Direction: 40°NE
Pressure: 29.68"   Gusts: NA
Location:  30.87°N, 96.6°W
Report Text: KLHB 230455Z AUTO 04003KT 10SM CLR 13/07 A2968 RMK AO2 T01340072
Loading
Personal Weather Stations






























Interactive Weather Map New forecast layout! Learn more

10-Day Weather Forecast

Advertisements
Track Severe Weather on mobile